El Granada, CA (94018)

6:17 PM PST on March 01, 2015 (GMT -0800)
Miramar NE | Change Station
CLOSE
Current Station
Personal Weather Station
Location: Half Moon Bay, CA
Elevation: 62 ft
Nearby Weather Stations

Elev 62 ft 37.50 °N, 122.46 °W | Updated 5 seconds ago

Clear
Clear
55.0 °F
Feels Like 55.0 °F
N
0.9
Wind Variable Wind from WSW
Gusts 4.0 mph

Today
High -- | Low -- °F
--% Chance of Precip.
Yesterday
High -- | Low -- °F
Precip. -- in
6:41 AM 6:03 PM
Waxing Gibbous, 88% visible
Pressure 29.94 in
Visibility 8.0 miles
Clouds Clear
Dew Point 48 °F
Humidity 76%
Rainfall 0.00 in
Snow Depth Not available.
UV 0 out of 12
Pollen 8.20 out of 12
Air Quality Not available.
Flu Activity Not available.
METAR KHAF 020155Z AUTO 33011KT 8SM CLR 13/09 A2994 RMK AO2

More Conditions Fewer Conditions

Pressure 29.94 in
Visibility 8.0 miles
Clouds Clear
Dew Point 48 °F
Humidity 76%
Rainfall 0.00 in
Snow Depth Not available.
UV 0 out of 12
Pollen 8.20 out of 12
Air Quality Not available.
Flu Activity Not available.
METAR KHAF 020155Z AUTO 33011KT 8SM CLR 13/09 A2994 RMK AO2

More Conditions Fewer Conditions

10-Day Weather Forecast

Almanac

Astronomy

Mar. 01, 2015 Rise Set
Actual Time
Civil Twilight
Nautical Twilight
Astronomical Twilight
Moon
Length of Visible Light
Length of Day
Tomorrow will be .
, % of the Moon is Illuminated

Today's Extremes

State Highs State Lows

Community

WunderPhotos

Upload Photos

1,801,683 photos uploaded!

WunderBlogs® & News

Nearby

Air Quality

  Air Quality AQ Index Pollutant
Not available.

Snow Depth

Station Depth Elevation

Earthquake Activity

City Distance Mag. Time & Date
Minimum magnitude displayed is 2.5.

Coastal Water Temperatures

Place Temperature

Nearby Weather Stations